Time;durP1;ratioP1;P1;durP2;ratioP2;P2;SDS_P1;SDS_P2;PMS_P1;PMS_P2;Temp;Humidity;BMP_temperature;BMP_pressure;BME280_temperature;BME280_humidity;BME280_pressure;Samples;Min_cycle;Max_cycle;Signal;HPM_P1;HPM_P2
2021/09/03 00:01:40;;;;;;;24.20;16.70;;;;;;;;;;5081879;28;20138;-75
2021/09/03 00:04:06;;;;;;;28.40;16.60;;;;;;;;;;5068608;28;20063;-75
2021/09/03 00:06:33;;;;;;;27.08;16.90;;;;;;;;;;5087482;28;20861;-75
2021/09/03 00:08:59;;;;;;;27.40;17.05;;;;;;;;;;5070655;28;20061;-75
2021/09/03 00:11:25;;;;;;;28.65;16.20;;;;;;;;;;5085221;28;20202;-75
2021/09/03 00:13:51;;;;;;;27.40;16.45;;;;;;;;;;5089103;28;20044;-75
2021/09/03 00:16:18;;;;;;;26.55;17.15;;;;;;;;;;5087506;28;20051;-75
2021/09/03 00:18:46;;;;;;;31.38;17.85;;;;;;;;;;5086744;28;20046;-75
2021/09/03 00:21:12;;;;;;;27.85;17.52;;;;;;;;;;5088848;28;20097;-75
2021/09/03 00:23:38;;;;;;;23.75;16.55;;;;;;;;;;5087313;28;20055;-75
2021/09/03 00:26:04;;;;;;;27.15;16.42;;;;;;;;;;5089085;28;20082;-75
2021/09/03 00:28:30;;;;;;;32.45;17.98;;;;;;;;;;5086864;28;20048;-75
2021/09/03 00:30:56;;;;;;;28.02;18.02;;;;;;;;;;5084701;28;20054;-75
2021/09/03 00:33:22;;;;;;;32.35;19.85;;;;;;;;;;5081856;28;20055;-75
2021/09/03 00:35:48;;;;;;;34.00;20.02;;;;;;;;;;5084181;28;20040;-75
2021/09/03 00:38:14;;;;;;;30.90;19.02;;;;;;;;;;5088149;28;20136;-75
2021/09/03 00:40:40;;;;;;;28.98;18.88;;;;;;;;;;5088990;28;20399;-75
2021/09/03 00:43:06;;;;;;;24.55;17.00;;;;;;;;;;5084270;28;20044;-75
2021/09/03 00:45:33;;;;;;;29.00;19.20;;;;;;;;;;5087458;28;20051;-75
2021/09/03 00:47:59;;;;;;;28.73;17.92;;;;;;;;;;5066130;28;20521;-75
2021/09/03 00:50:25;;;;;;;29.40;18.42;;;;;;;;;;5079280;27;20047;-75
2021/09/03 00:52:51;;;;;;;28.05;18.65;;;;;;;;;;5087943;28;20055;-75
2021/09/03 00:55:17;;;;;;;31.05;17.83;;;;;;;;;;5083674;28;20040;-75
2021/09/03 00:57:43;;;;;;;32.30;19.40;;;;;;;;;;5086769;28;20048;-75
2021/09/03 01:00:09;;;;;;;33.45;19.25;;;;;;;;;;5086042;28;20040;-75
2021/09/03 01:02:35;;;;;;;34.70;19.27;;;;;;;;;;5068735;28;20048;-75
2021/09/03 01:05:02;;;;;;;29.38;18.23;;;;;;;;;;5086529;28;20050;-75
2021/09/03 01:07:28;;;;;;;33.85;17.98;;;;;;;;;;5088488;28;20390;-75
2021/09/03 01:09:54;;;;;;;32.13;18.50;;;;;;;;;;5084893;28;20044;-75
2021/09/03 01:12:20;;;;;;;28.85;17.60;;;;;;;;;;5086103;28;20048;-75
2021/09/03 01:14:46;;;;;;;26.55;17.13;;;;;;;;;;5087660;28;20127;-75
2021/09/03 01:17:12;;;;;;;25.30;17.20;;;;;;;;;;5072715;28;20511;-75
2021/09/03 01:19:38;;;;;;;28.98;17.98;;;;;;;;;;5091765;28;20044;-75
2021/09/03 01:22:04;;;;;;;28.67;17.67;;;;;;;;;;5074229;28;20063;-75
2021/09/03 01:24:30;;;;;;;28.17;16.83;;;;;;;;;;5091994;28;20040;-75
2021/09/03 01:26:57;;;;;;;26.50;16.55;;;;;;;;;;5090927;28;20451;-75
2021/09/03 01:29:23;;;;;;;24.15;15.95;;;;;;;;;;5089959;28;20040;-75
2021/09/03 01:31:49;;;;;;;28.02;16.48;;;;;;;;;;5090419;28;20067;-75
2021/09/03 01:34:15;;;;;;;28.42;16.00;;;;;;;;;;5071520;28;20052;-75
2021/09/03 01:36:41;;;;;;;25.90;15.48;;;;;;;;;;5092303;28;20044;-75
2021/09/03 01:39:07;;;;;;;25.35;15.15;;;;;;;;;;5092167;28;20039;-75
2021/09/03 01:41:33;;;;;;;27.60;17.48;;;;;;;;;;5089194;28;20186;-75
2021/09/03 01:44:00;;;;;;;24.75;16.02;;;;;;;;;;5085966;28;20100;-75
2021/09/03 01:46:26;;;;;;;26.50;16.70;;;;;;;;;;5089624;28;20063;-75
2021/09/03 01:48:52;;;;;;;27.02;16.35;;;;;;;;;;5090104;28;20382;-75
2021/09/03 01:51:18;;;;;;;31.98;18.05;;;;;;;;;;5089880;28;20073;-75
2021/09/03 01:53:44;;;;;;;27.85;17.20;;;;;;;;;;5092601;28;20103;-75
2021/09/03 01:56:10;;;;;;;23.80;14.55;;;;;;;;;;5089563;28;20060;-76
2021/09/03 01:58:36;;;;;;;24.85;16.17;;;;;;;;;;5072649;28;20039;-75
2021/09/03 02:01:03;;;;;;;25.50;16.02;;;;;;;;;;5091476;28;20171;-75
2021/09/03 02:03:29;;;;;;;22.17;15.63;;;;;;;;;;5087925;28;20040;-75
2021/09/03 02:05:56;;;;;;;25.52;15.73;;;;;;;;;;5085811;28;20402;-75
2021/09/03 02:08:22;;;;;;;23.20;15.27;;;;;;;;;;5090577;28;20583;-75
2021/09/03 02:10:48;;;;;;;22.40;14.07;;;;;;;;;;5073485;28;20055;-75
2021/09/03 02:13:14;;;;;;;26.58;15.52;;;;;;;;;;5087464;28;20051;-75
2021/09/03 02:15:40;;;;;;;24.40;16.52;;;;;;;;;;5088577;28;20056;-75
2021/09/03 02:18:07;;;;;;;26.75;16.17;;;;;;;;;;5086745;28;20123;-75
2021/09/03 02:20:33;;;;;;;29.15;17.02;;;;;;;;;;5097906;28;20498;-75
2021/09/03 02:22:59;;;;;;;24.48;16.48;;;;;;;;;;5087251;28;20491;-75
2021/09/03 02:25:25;;;;;;;29.38;16.80;;;;;;;;;;5094820;28;20140;-75
2021/09/03 02:27:51;;;;;;;24.83;15.90;;;;;;;;;;5088406;28;20048;-75
2021/09/03 02:30:17;;;;;;;31.60;16.73;;;;;;;;;;5088495;28;20043;-75
2021/09/03 02:32:43;;;;;;;23.17;15.57;;;;;;;;;;5087800;28;20325;-75
2021/09/03 02:35:09;;;;;;;24.10;14.05;;;;;;;;;;5087263;28;20052;-75
2021/09/03 02:37:35;;;;;;;22.75;14.35;;;;;;;;;;5088138;28;20123;-75
2021/09/03 02:40:01;;;;;;;20.98;14.15;;;;;;;;;;5086145;28;20394;-75
2021/09/03 02:42:27;;;;;;;21.48;14.50;;;;;;;;;;5072149;28;20042;-75
2021/09/03 02:44:53;;;;;;;20.25;14.02;;;;;;;;;;5073223;28;20040;-75
2021/09/03 02:47:19;;;;;;;27.10;15.15;;;;;;;;;;5088070;28;20044;-75
2021/09/03 02:49:45;;;;;;;28.08;17.10;;;;;;;;;;5088378;28;20042;-75
2021/09/03 02:52:11;;;;;;;26.02;16.73;;;;;;;;;;5087845;28;20395;-75
2021/09/03 02:54:37;;;;;;;29.23;17.58;;;;;;;;;;5086512;28;20388;-75
2021/09/03 02:57:04;;;;;;;23.27;17.75;;;;;;;;;;5086810;28;20094;-75
2021/09/03 02:59:30;;;;;;;27.88;16.90;;;;;;;;;;5072202;28;20040;-75
2021/09/03 03:01:56;;;;;;;21.38;15.60;;;;;;;;;;5085921;28;20048;-75
2021/09/03 03:04:22;;;;;;;26.35;16.88;;;;;;;;;;5086577;28;20044;-75
2021/09/03 03:06:48;;;;;;;27.88;16.42;;;;;;;;;;5090423;28;20044;-75
2021/09/03 03:09:14;;;;;;;26.65;17.85;;;;;;;;;;5070945;28;20056;-75
2021/09/03 03:11:40;;;;;;;24.90;16.60;;;;;;;;;;5102775;28;20382;-75
2021/09/03 03:14:26;;;;;;;23.67;16.42;;;;;;;;;;5065139;28;20048;-75
2021/09/03 03:16:52;;;;;;;23.02;15.23;;;;;;;;;;5043655;28;1091588;-75
2021/09/03 03:19:18;;;;;;;20.80;14.25;;;;;;;;;;5082227;28;20119;-78
2021/09/03 03:21:44;;;;;;;24.23;15.13;;;;;;;;;;5098024;28;20104;-75
2021/09/03 03:24:10;;;;;;;28.52;17.10;;;;;;;;;;5087529;28;20051;-74
2021/09/03 03:26:36;;;;;;;25.85;16.33;;;;;;;;;;5087995;28;20079;-75
2021/09/03 03:29:03;;;;;;;21.92;14.68;;;;;;;;;;5088842;28;20040;-75
2021/09/03 03:31:31;;;;;;;28.85;17.60;;;;;;;;;;5084765;28;20048;-75
2021/09/03 03:33:58;;;;;;;30.83;17.02;;;;;;;;;;5087807;28;20040;-74
2021/09/03 03:36:24;;;;;;;31.20;18.58;;;;;;;;;;5087337;28;20059;-74
2021/09/03 03:38:50;;;;;;;29.60;16.05;;;;;;;;;;5072008;28;20491;-74
2021/09/03 03:41:16;;;;;;;25.08;16.10;;;;;;;;;;5087583;28;20451;-75
2021/09/03 03:43:42;;;;;;;27.17;17.35;;;;;;;;;;5086516;28;20101;-75
2021/09/03 03:46:08;;;;;;;21.35;14.98;;;;;;;;;;5087786;28;20036;-74
2021/09/03 03:48:34;;;;;;;24.13;16.02;;;;;;;;;;5088889;28;20051;-74
2021/09/03 03:51:01;;;;;;;27.58;17.25;;;;;;;;;;5088309;28;20044;-74
2021/09/03 03:53:27;;;;;;;27.75;17.23;;;;;;;;;;5086328;28;20032;-74
2021/09/03 03:55:53;;;;;;;24.40;15.98;;;;;;;;;;5072546;28;20048;-75
2021/09/03 03:58:19;;;;;;;27.88;17.00;;;;;;;;;;5088700;28;20086;-75
2021/09/03 04:00:45;;;;;;;27.23;16.27;;;;;;;;;;5085351;28;20521;-75
2021/09/03 04:03:11;;;;;;;23.73;15.50;;;;;;;;;;5083716;28;20055;-74
2021/09/03 04:05:38;;;;;;;22.65;15.80;;;;;;;;;;5087064;28;20051;-74
2021/09/03 04:08:04;;;;;;;23.13;15.55;;;;;;;;;;5089044;28;20062;-74
2021/09/03 04:10:30;;;;;;;26.13;16.33;;;;;;;;;;5087440;28;20044;-75
2021/09/03 04:12:56;;;;;;;31.90;17.38;;;;;;;;;;5088309;28;20044;-75
2021/09/03 04:15:22;;;;;;;27.10;16.38;;;;;;;;;;5086613;28;20052;-75
2021/09/03 04:17:48;;;;;;;23.73;16.30;;;;;;;;;;5087813;28;20127;-75
2021/09/03 04:20:15;;;;;;;24.75;15.52;;;;;;;;;;5086314;28;20119;-74
2021/09/03 04:22:41;;;;;;;25.45;15.90;;;;;;;;;;5088769;28;20094;-75
2021/09/03 04:25:08;;;;;;;27.42;16.75;;;;;;;;;;5085014;28;20052;-74
2021/09/03 04:27:34;;;;;;;29.80;17.67;;;;;;;;;;5088023;28;20497;-75
2021/09/03 04:30:01;;;;;;;26.13;16.15;;;;;;;;;;5087636;28;20035;-75
2021/09/03 04:32:28;;;;;;;26.30;16.35;;;;;;;;;;5071402;28;20051;-74
2021/09/03 04:34:54;;;;;;;25.95;16.27;;;;;;;;;;5086707;28;20083;-75
2021/09/03 04:37:20;;;;;;;23.80;16.15;;;;;;;;;;5085789;28;20046;-80
2021/09/03 04:39:46;;;;;;;22.67;15.88;;;;;;;;;;5077158;28;20044;-75
2021/09/03 04:42:12;;;;;;;27.48;16.08;;;;;;;;;;5081910;28;20040;-76
2021/09/03 04:44:38;;;;;;;27.23;16.15;;;;;;;;;;5086928;28;20035;-76
2021/09/03 04:47:04;;;;;;;25.00;15.20;;;;;;;;;;5084418;28;20048;-77
2021/09/03 04:49:30;;;;;;;25.33;16.65;;;;;;;;;;5081427;28;20044;-75
2021/09/03 04:51:56;;;;;;;26.38;16.35;;;;;;;;;;5083221;28;20076;-76
2021/09/03 04:54:22;;;;;;;26.42;16.48;;;;;;;;;;5065700;28;20511;-75
2021/09/03 04:56:49;;;;;;;26.13;16.45;;;;;;;;;;5094033;28;20032;-75
2021/09/03 04:59:15;;;;;;;22.42;15.85;;;;;;;;;;5078658;28;20079;-75
2021/09/03 05:01:41;;;;;;;24.52;15.25;;;;;;;;;;5084328;28;20085;-75
2021/09/03 05:04:07;;;;;;;24.70;15.68;;;;;;;;;;5109918;28;20048;-77
2021/09/03 05:06:33;;;;;;;21.98;14.32;;;;;;;;;;5087758;28;20131;-80
2021/09/03 05:08:59;;;;;;;20.67;13.38;;;;;;;;;;5080597;28;20119;-74
2021/09/03 05:11:25;;;;;;;21.85;13.60;;;;;;;;;;5075332;28;20048;-75
2021/09/03 05:13:51;;;;;;;18.10;12.93;;;;;;;;;;5070861;28;20377;-75
2021/09/03 05:16:17;;;;;;;27.25;14.40;;;;;;;;;;5085356;28;20079;-74
2021/09/03 05:18:43;;;;;;;19.33;13.82;;;;;;;;;;5061311;28;20040;-75
2021/09/03 05:21:09;;;;;;;20.60;13.98;;;;;;;;;;5088075;28;20442;-75
2021/09/03 05:23:36;;;;;;;18.15;13.27;;;;;;;;;;5058173;28;20350;-74
2021/09/03 05:26:02;;;;;;;17.20;12.73;;;;;;;;;;5085891;28;20079;-74
2021/09/03 05:28:29;;;;;;;21.38;14.07;;;;;;;;;;5088623;28;20063;-74
2021/09/03 05:30:55;;;;;;;19.55;13.77;;;;;;;;;;5087423;28;20253;-74
2021/09/03 05:33:21;;;;;;;20.98;14.80;;;;;;;;;;5086748;28;20076;-74
2021/09/03 05:35:47;;;;;;;24.13;16.02;;;;;;;;;;5088566;28;20185;-74
2021/09/03 05:38:13;;;;;;;21.58;15.27;;;;;;;;;;5081857;28;20057;-75
2021/09/03 05:40:39;;;;;;;24.38;14.65;;;;;;;;;;5069409;28;20127;-73
2021/09/03 05:43:05;;;;;;;20.50;13.93;;;;;;;;;;5066985;28;20479;-72
2021/09/03 05:45:32;;;;;;;22.70;14.60;;;;;;;;;;5092123;28;20044;-73
2021/09/03 05:48:00;;;;;;;20.85;13.52;;;;;;;;;;5077611;28;20040;-73
2021/09/03 05:50:26;;;;;;;22.02;15.15;;;;;;;;;;5076294;28;20052;-73
2021/09/03 05:52:52;;;;;;;22.85;14.88;;;;;;;;;;5105398;28;20097;-73
2021/09/03 05:55:18;;;;;;;21.73;14.60;;;;;;;;;;5069294;28;20041;-73
2021/09/03 05:57:45;;;;;;;24.25;14.38;;;;;;;;;;5071335;28;20044;-73
2021/09/03 06:00:11;;;;;;;23.23;13.68;;;;;;;;;;5072386;28;20593;-73
2021/09/03 06:02:37;;;;;;;24.77;15.13;;;;;;;;;;5082761;28;20076;-74
2021/09/03 06:05:04;;;;;;;25.40;15.35;;;;;;;;;;5085013;28;20127;-73
2021/09/03 06:07:30;;;;;;;29.95;15.40;;;;;;;;;;5112828;27;20039;-74
2021/09/03 06:09:56;;;;;;;22.38;15.30;;;;;;;;;;5080390;28;20045;-74
2021/09/03 06:12:22;;;;;;;26.48;15.13;;;;;;;;;;5077829;28;20040;-73
2021/09/03 06:14:48;;;;;;;25.95;15.57;;;;;;;;;;5074210;28;20044;-73
2021/09/03 06:17:17;;;;;;;28.90;16.90;;;;;;;;;;5077483;28;20105;-73
2021/09/03 06:19:43;;;;;;;40.88;17.30;;;;;;;;;;5090309;28;20469;-73
2021/09/03 06:22:09;;;;;;;31.88;18.10;;;;;;;;;;5078912;28;20078;-74
2021/09/03 06:24:35;;;;;;;29.35;16.35;;;;;;;;;;5074209;28;20458;-74
2021/09/03 06:27:06;;;;;;;27.27;16.88;;;;;;;;;;5077146;28;20051;-73
2021/09/03 06:32:08;;;;;;;31.52;18.55;;;;;;;;;;5079796;28;20105;-73
2021/09/03 06:34:35;;;;;;;39.58;19.80;;;;;;;;;;5073819;28;20055;-73
2021/09/03 06:37:01;;;;;;;33.83;18.83;;;;;;;;;;5075166;28;20055;-73
2021/09/03 06:39:27;;;;;;;36.40;19.70;;;;;;;;;;5071716;28;20442;-73
2021/09/03 06:41:53;;;;;;;38.53;20.40;;;;;;;;;;5078952;28;20061;-73
2021/09/03 06:44:19;;;;;;;37.67;19.90;;;;;;;;;;5065691;28;20109;-74
2021/09/03 06:46:45;;;;;;;42.92;20.52;;;;;;;;;;5080571;28;20136;-74
2021/09/03 06:49:11;;;;;;;34.55;19.50;;;;;;;;;;5086516;28;20044;-74
2021/09/03 06:51:37;;;;;;;42.25;20.55;;;;;;;;;;5073940;28;20070;-73
2021/09/03 06:54:03;;;;;;;40.05;21.58;;;;;;;;;;5072109;28;20095;-75
2021/09/03 06:56:29;;;;;;;37.83;19.45;;;;;;;;;;5072343;28;20048;-74
2021/09/03 06:58:56;;;;;;;37.38;20.02;;;;;;;;;;5077576;28;20041;-74
2021/09/03 07:01:22;;;;;;;30.10;19.50;;;;;;;;;;5075805;28;20090;-74
2021/09/03 07:03:48;;;;;;;37.50;20.67;;;;;;;;;;5094838;28;20052;-74
2021/09/03 07:06:14;;;;;;;31.25;19.23;;;;;;;;;;5107781;28;20053;-75
2021/09/03 07:08:40;;;;;;;37.97;21.65;;;;;;;;;;5078907;28;20040;-74
2021/09/03 07:11:07;;;;;;;38.72;21.23;;;;;;;;;;5073378;28;20059;-74
2021/09/03 07:13:34;;;;;;;33.83;19.25;;;;;;;;;;5107060;27;20044;-74
2021/09/03 07:16:01;;;;;;;31.63;19.92;;;;;;;;;;5105712;27;20082;-74
2021/09/03 07:18:27;;;;;;;33.63;19.95;;;;;;;;;;5111589;27;20440;-74
2021/09/03 07:20:53;;;;;;;41.25;21.30;;;;;;;;;;5082869;28;20040;-74
2021/09/03 07:23:19;;;;;;;35.97;19.42;;;;;;;;;;5090470;28;20437;-74
2021/09/03 07:25:45;;;;;;;31.40;19.27;;;;;;;;;;5071185;28;20489;-74
2021/09/03 07:28:11;;;;;;;37.08;21.35;;;;;;;;;;5069984;28;20051;-74
2021/09/03 07:30:37;;;;;;;36.30;20.27;;;;;;;;;;5089038;28;20044;-74
2021/09/03 07:33:03;;;;;;;42.83;20.58;;;;;;;;;;5071601;28;20537;-74
2021/09/03 07:35:29;;;;;;;37.20;21.35;;;;;;;;;;5077304;28;20136;-74
2021/09/03 07:37:56;;;;;;;37.95;19.67;;;;;;;;;;5115119;27;20048;-74
2021/09/03 07:40:22;;;;;;;36.83;21.10;;;;;;;;;;5061691;28;20051;-74
2021/09/03 07:42:49;;;;;;;40.33;18.98;;;;;;;;;;5090547;28;20131;-74
2021/09/03 07:45:15;;;;;;;41.70;21.10;;;;;;;;;;5071457;28;20052;-74
2021/09/03 07:47:41;;;;;;;40.45;21.30;;;;;;;;;;5084505;28;20040;-74
2021/09/03 07:50:07;;;;;;;37.10;19.75;;;;;;;;;;5088073;28;20115;-75
2021/09/03 07:52:33;;;;;;;37.67;20.55;;;;;;;;;;5082874;28;20048;-74
2021/09/03 07:54:59;;;;;;;32.92;19.05;;;;;;;;;;5119602;27;20400;-75
2021/09/03 07:57:25;;;;;;;36.80;20.73;;;;;;;;;;5115476;27;20457;-75
2021/09/03 07:59:51;;;;;;;32.95;19.02;;;;;;;;;;5104159;28;20048;-75
2021/09/03 08:02:17;;;;;;;36.75;20.30;;;;;;;;;;5087780;28;20059;-75
2021/09/03 08:04:44;;;;;;;32.67;18.95;;;;;;;;;;5105098;27;20071;-75
2021/09/03 08:07:10;;;;;;;35.22;18.20;;;;;;;;;;5072889;28;20052;-74
2021/09/03 08:09:36;;;;;;;30.50;17.02;;;;;;;;;;5080706;28;20057;-74
2021/09/03 08:12:02;;;;;;;35.15;16.67;;;;;;;;;;5084333;28;20044;-74
2021/09/03 08:14:28;;;;;;;32.42;18.73;;;;;;;;;;5072533;28;20080;-74
2021/09/03 08:16:54;;;;;;;34.40;18.23;;;;;;;;;;5064509;28;20405;-74
2021/09/03 08:19:20;;;;;;;32.67;18.25;;;;;;;;;;5082241;28;20056;-74
2021/09/03 08:21:46;;;;;;;29.52;16.52;;;;;;;;;;5107072;28;20084;-76
2021/09/03 08:24:12;;;;;;;29.80;17.17;;;;;;;;;;5084640;28;20515;-74
2021/09/03 08:26:38;;;;;;;31.90;16.98;;;;;;;;;;5072209;28;20064;-74
2021/09/03 08:29:05;;;;;;;31.38;17.02;;;;;;;;;;5078819;28;20139;-73
2021/09/03 08:31:31;;;;;;;28.30;15.57;;;;;;;;;;5075286;28;20114;-74
2021/09/03 08:33:57;;;;;;;27.90;15.68;;;;;;;;;;5088349;28;20047;-74
2021/09/03 08:36:23;;;;;;;30.90;16.77;;;;;;;;;;5082626;28;20044;-74
2021/09/03 08:38:49;;;;;;;27.67;15.00;;;;;;;;;;5071475;28;20097;-73
2021/09/03 08:41:19;;;;;;;26.90;15.32;;;;;;;;;;5107366;27;20152;-73
2021/09/03 08:43:45;;;;;;;21.75;12.73;;;;;;;;;;5079997;28;20371;-73
2021/09/03 08:46:14;;;;;;;29.55;12.57;;;;;;;;;;5077024;28;20064;-72
2021/09/03 08:48:40;;;;;;;22.45;12.43;;;;;;;;;;5103015;28;20487;-72
2021/09/03 08:51:06;;;;;;;26.05;12.27;;;;;;;;;;5070886;28;20036;-73
2021/09/03 08:53:32;;;;;;;22.92;12.35;;;;;;;;;;5105997;27;20047;-74
2021/09/03 08:55:59;;;;;;;25.08;12.77;;;;;;;;;;5070242;28;20048;-74
2021/09/03 08:58:26;;;;;;;18.52;10.43;;;;;;;;;;5071011;28;20056;-73
2021/09/03 09:01:05;;;;;;;18.02;11.02;;;;;;;;;;5083308;28;20269;-73
2021/09/03 09:03:57;;;;;;;22.98;11.48;;;;;;;;;;5070309;28;20307;-72
2021/09/03 09:06:27;;;;;;;19.75;10.13;;;;;;;;;;5078290;28;20048;-74
2021/09/03 09:08:59;;;;;;;19.00;10.00;;;;;;;;;;5079494;28;20055;-74
2021/09/03 09:11:28;;;;;;;15.00;9.35;;;;;;;;;;5084159;28;20048;-75
2021/09/03 09:13:57;;;;;;;16.60;9.90;;;;;;;;;;5079538;28;20056;-75
2021/09/03 09:16:26;;;;;;;21.90;9.60;;;;;;;;;;5070343;28;20158;-74
2021/09/03 09:18:55;;;;;;;25.88;10.32;;;;;;;;;;5070032;28;20044;-75
2021/09/03 09:21:32;;;;;;;19.02;8.82;;;;;;;;;;5069707;28;20037;-74
2021/09/03 09:23:58;;;;;;;18.10;9.35;;;;;;;;;;5068463;28;20530;-74
2021/09/03 09:26:43;;;;;;;17.50;10.35;;;;;;;;;;5069605;28;20569;-74
2021/09/03 09:29:13;;;;;;;19.98;9.57;;;;;;;;;;5070381;28;20452;-74
2021/09/03 09:31:39;;;;;;;15.65;9.02;;;;;;;;;;5102829;28;20135;-74
2021/09/03 09:34:13;;;;;;;17.95;9.93;;;;;;;;;;5117135;28;20055;-74
2021/09/03 09:36:39;;;;;;;16.23;9.23;;;;;;;;;;5069916;28;20044;-74
2021/09/03 09:39:05;;;;;;;19.60;10.20;;;;;;;;;;5073276;28;20143;-74
2021/09/03 09:41:31;;;;;;;21.27;10.77;;;;;;;;;;5090536;28;20036;-74
2021/09/03 09:43:58;;;;;;;18.10;10.80;;;;;;;;;;5083792;28;20051;-74
2021/09/03 09:46:25;;;;;;;21.48;12.13;;;;;;;;;;5076755;28;20219;-73
2021/09/03 09:48:52;;;;;;;20.30;12.02;;;;;;;;;;5073148;28;20048;-72
2021/09/03 09:51:22;;;;;;;22.65;11.48;;;;;;;;;;5074375;28;20080;-74
2021/09/03 09:53:59;;;;;;;20.70;12.18;;;;;;;;;;5118980;27;20475;-73
2021/09/03 09:56:26;;;;;;;19.77;11.45;;;;;;;;;;5120082;27;20135;-73
2021/09/03 09:58:53;;;;;;;21.60;11.55;;;;;;;;;;5085722;28;20044;-74
2021/09/03 10:01:20;;;;;;;23.58;12.13;;;;;;;;;;5072967;28;20052;-73
2021/09/03 10:03:47;;;;;;;20.58;12.02;;;;;;;;;;5071551;28;20043;-73
2021/09/03 10:06:15;;;;;;;22.00;11.65;;;;;;;;;;5081890;28;20048;-73
2021/09/03 10:08:42;;;;;;;19.60;12.52;;;;;;;;;;5106754;28;20050;-73
2021/09/03 10:11:09;;;;;;;19.65;10.68;;;;;;;;;;5086416;28;20052;-73
2021/09/03 10:13:35;;;;;;;24.17;11.95;;;;;;;;;;5090763;28;20051;-75
2021/09/03 10:16:01;;;;;;;16.75;11.35;;;;;;;;;;5072795;28;20068;-74
2021/09/03 10:18:27;;;;;;;17.38;11.20;;;;;;;;;;5073692;28;20114;-74
2021/09/03 10:20:53;;;;;;;20.08;10.50;;;;;;;;;;5072792;28;20049;-74
2021/09/03 10:23:38;;;;;;;18.90;10.80;;;;;;;;;;5073329;28;20134;-74
2021/09/03 10:26:05;;;;;;;18.98;10.60;;;;;;;;;;5072657;28;20080;-74
2021/09/03 10:28:31;;;;;;;17.33;10.07;;;;;;;;;;5106362;27;20048;-74
2021/09/03 10:31:07;;;;;;;20.27;10.80;;;;;;;;;;5106878;27;20044;-73
2021/09/03 10:33:35;;;;;;;19.40;10.88;;;;;;;;;;5055221;28;20047;-74
2021/09/03 10:36:01;;;;;;;20.25;10.25;;;;;;;;;;5105766;27;20560;-73
2021/09/03 10:38:29;;;;;;;20.20;10.13;;;;;;;;;;5107058;27;20048;-73
2021/09/03 10:40:55;;;;;;;17.48;9.93;;;;;;;;;;5083862;28;20267;-72
2021/09/03 10:43:39;;;;;;;15.55;9.90;;;;;;;;;;5079365;28;20131;-72
2021/09/03 10:46:07;;;;;;;18.13;10.20;;;;;;;;;;5080533;28;20098;-72
2021/09/03 10:48:33;;;;;;;18.38;10.35;;;;;;;;;;5083510;28;20044;-74
2021/09/03 10:51:00;;;;;;;18.48;10.25;;;;;;;;;;5105324;27;20094;-72
2021/09/03 10:53:28;;;;;;;18.17;9.55;;;;;;;;;;5072284;28;20482;-72
2021/09/03 10:56:02;;;;;;;18.17;9.35;;;;;;;;;;5072345;28;20055;-72
2021/09/03 10:58:34;;;;;;;16.27;10.15;;;;;;;;;;5117870;27;20101;-72
2021/09/03 11:01:12;;;;;;;21.40;9.60;;;;;;;;;;5075696;28;20056;-73
2021/09/03 11:03:43;;;;;;;19.63;9.23;;;;;;;;;;5105468;27;20036;-72
2021/09/03 11:06:12;;;;;;;15.95;9.32;;;;;;;;;;5078293;28;20055;-75
2021/09/03 11:08:47;;;;;;;14.73;9.68;;;;;;;;;;5057563;28;20055;-76
2021/09/03 11:11:23;;;;;;;14.80;9.02;;;;;;;;;;5088368;28;20040;-75
2021/09/03 11:13:50;;;;;;;18.67;10.35;;;;;;;;;;5120247;27;20083;-72
2021/09/03 11:16:34;;;;;;;17.52;9.63;;;;;;;;;;5077259;28;20067;-72
2021/09/03 11:19:06;;;;;;;20.58;9.90;;;;;;;;;;5071403;28;20397;-72
2021/09/03 11:21:33;;;;;;;16.38;9.68;;;;;;;;;;5070766;28;20102;-75
2021/09/03 11:23:59;;;;;;;16.38;9.00;;;;;;;;;;5070549;28;20185;-72
2021/09/03 11:26:27;;;;;;;16.50;9.48;;;;;;;;;;5071236;28;20051;-74
2021/09/03 11:28:54;;;;;;;18.05;9.90;;;;;;;;;;5070630;28;20053;-73
2021/09/03 11:31:20;;;;;;;16.65;10.13;;;;;;;;;;5073380;28;20048;-74
2021/09/03 11:33:46;;;;;;;17.70;10.45;;;;;;;;;;5089912;28;20036;-75
2021/09/03 11:36:13;;;;;;;19.80;10.38;;;;;;;;;;5063751;28;20394;-74
2021/09/03 11:38:40;;;;;;;16.85;9.73;;;;;;;;;;5090546;28;20044;-74
2021/09/03 11:41:10;;;;;;;16.42;10.40;;;;;;;;;;5087140;28;20101;-78
2021/09/03 11:43:36;;;;;;;17.70;10.07;;;;;;;;;;5070459;28;20044;-73
2021/09/03 11:46:15;;;;;;;19.13;10.38;;;;;;;;;;5070470;28;20523;-73
2021/09/03 11:48:41;;;;;;;17.40;10.02;;;;;;;;;;5105295;27;20048;-74
2021/09/03 11:51:07;;;;;;;18.17;10.85;;;;;;;;;;5106125;27;20062;-74
2021/09/03 11:53:34;;;;;;;22.13;11.43;;;;;;;;;;5090500;28;20075;-74
2021/09/03 11:56:00;;;;;;;16.17;9.52;;;;;;;;;;5087392;28;20082;-74
2021/09/03 11:58:26;;;;;;;18.15;10.13;;;;;;;;;;5073964;28;20052;-74
2021/09/03 12:00:53;;;;;;;17.25;10.23;;;;;;;;;;5083171;28;20070;-75
2021/09/03 12:03:21;;;;;;;15.57;8.93;;;;;;;;;;5077898;28;20043;-74
2021/09/03 12:05:48;;;;;;;17.23;9.48;;;;;;;;;;5065372;28;20467;-74
2021/09/03 12:08:16;;;;;;;17.77;9.85;;;;;;;;;;5084680;28;20135;-74
2021/09/03 12:10:42;;;;;;;19.85;10.40;;;;;;;;;;5076492;28;20063;-80
2021/09/03 12:13:09;;;;;;;16.25;9.93;;;;;;;;;;5119284;27;20047;-76
2021/09/03 12:15:35;;;;;;;17.20;9.90;;;;;;;;;;5070780;28;20178;-75
2021/09/03 12:18:02;;;;;;;19.60;9.77;;;;;;;;;;5079305;28;20504;-74
2021/09/03 12:20:30;;;;;;;19.17;9.60;;;;;;;;;;5077406;28;20036;-76
2021/09/03 12:22:57;;;;;;;16.52;9.95;;;;;;;;;;5069319;28;20105;-75
2021/09/03 12:25:43;;;;;;;16.05;9.75;;;;;;;;;;5070126;28;20565;-74
2021/09/03 12:28:14;;;;;;;16.55;10.27;;;;;;;;;;5070158;28;20051;-74
2021/09/03 12:30:41;;;;;;;16.98;9.88;;;;;;;;;;5087905;28;20632;-74
2021/09/03 12:33:20;;;;;;;23.15;11.52;;;;;;;;;;5081113;28;20452;-74
2021/09/03 12:35:46;;;;;;;16.75;9.45;;;;;;;;;;5069514;28;20531;-74
2021/09/03 12:38:12;;;;;;;19.25;10.10;;;;;;;;;;5078005;28;20388;-74
2021/09/03 12:40:38;;;;;;;18.25;10.60;;;;;;;;;;5081553;28;20047;-75
2021/09/03 12:43:12;;;;;;;16.95;9.32;;;;;;;;;;5086662;28;20501;-75
2021/09/03 12:45:56;;;;;;;17.08;9.80;;;;;;;;;;5055303;28;20441;-73
2021/09/03 12:48:22;;;;;;;15.85;9.93;;;;;;;;;;5069813;28;20059;-77
2021/09/03 12:50:48;;;;;;;19.05;10.55;;;;;;;;;;5071095;28;20048;-75
2021/09/03 12:53:19;;;;;;;19.30;10.48;;;;;;;;;;5089207;28;20070;-75
2021/09/03 12:55:45;;;;;;;19.98;10.07;;;;;;;;;;5069718;28;20052;-77
2021/09/03 12:58:11;;;;;;;18.23;10.55;;;;;;;;;;5052915;28;20048;-77
2021/09/03 13:00:38;;;;;;;18.50;10.23;;;;;;;;;;5069308;28;20465;-76
2021/09/03 13:03:04;;;;;;;18.45;10.77;;;;;;;;;;5102497;28;20048;-75
2021/09/03 13:05:30;;;;;;;16.95;10.38;;;;;;;;;;5070715;28;20041;-75
2021/09/03 13:07:56;;;;;;;17.73;10.77;;;;;;;;;;5070733;28;20045;-75
2021/09/03 13:10:22;;;;;;;17.45;10.52;;;;;;;;;;5076803;28;20083;-75
2021/09/03 13:12:48;;;;;;;16.83;10.23;;;;;;;;;;5087724;28;20044;-75
2021/09/03 13:15:14;;;;;;;19.67;10.77;;;;;;;;;;5057028;28;20048;-75
2021/09/03 13:17:40;;;;;;;18.73;10.43;;;;;;;;;;5074016;28;20067;-75
2021/09/03 13:20:07;;;;;;;18.08;10.68;;;;;;;;;;5106508;27;20483;-75
2021/09/03 13:22:33;;;;;;;19.90;10.70;;;;;;;;;;5062766;28;20101;-75
2021/09/03 13:24:59;;;;;;;16.30;10.07;;;;;;;;;;5073396;28;20040;-77
2021/09/03 13:27:25;;;;;;;19.48;11.00;;;;;;;;;;5089135;28;20047;-74
2021/09/03 13:29:51;;;;;;;19.38;10.73;;;;;;;;;;5107730;28;20084;-74
2021/09/03 13:32:17;;;;;;;20.05;10.45;;;;;;;;;;5055788;28;20044;-74
2021/09/03 13:34:43;;;;;;;19.75;10.85;;;;;;;;;;5084875;28;20041;-74
2021/09/03 13:37:09;;;;;;;23.73;11.35;;;;;;;;;;5090860;28;20050;-74
2021/09/03 13:39:35;;;;;;;21.45;11.05;;;;;;;;;;5073070;28;20135;-74
2021/09/03 13:42:02;;;;;;;20.55;10.82;;;;;;;;;;5080192;28;20093;-75
2021/09/03 13:44:28;;;;;;;17.02;10.93;;;;;;;;;;5080118;28;20048;-74
2021/09/03 13:46:54;;;;;;;23.25;11.75;;;;;;;;;;5073574;28;20041;-77
2021/09/03 13:49:22;;;;;;;18.52;10.82;;;;;;;;;;5074673;28;20080;-74
2021/09/03 13:51:48;;;;;;;18.90;11.43;;;;;;;;;;5106703;28;20084;-74
2021/09/03 13:54:15;;;;;;;17.42;10.27;;;;;;;;;;5073411;28;20049;-75
2021/09/03 13:56:41;;;;;;;17.20;10.13;;;;;;;;;;5072817;28;20052;-74
2021/09/03 13:59:11;;;;;;;19.83;11.13;;;;;;;;;;5106350;28;20486;-74
2021/09/03 14:01:37;;;;;;;19.63;11.00;;;;;;;;;;5106508;27;20052;-76
2021/09/03 14:04:03;;;;;;;18.40;10.57;;;;;;;;;;5105869;27;20508;-76
2021/09/03 14:06:29;;;;;;;17.40;11.55;;;;;;;;;;5090262;28;20048;-75
2021/09/03 14:08:55;;;;;;;16.08;10.52;;;;;;;;;;5072383;28;20057;-75
2021/09/03 14:11:21;;;;;;;17.95;10.63;;;;;;;;;;5087416;28;20511;-75
2021/09/03 14:13:47;;;;;;;22.20;11.70;;;;;;;;;;5087846;28;20056;-75
2021/09/03 14:16:14;;;;;;;21.27;10.85;;;;;;;;;;5072377;28;20086;-75
2021/09/03 14:18:41;;;;;;;18.13;10.85;;;;;;;;;;5073434;28;20047;-74
2021/09/03 14:21:07;;;;;;;18.25;10.98;;;;;;;;;;5055635;28;20480;-75